Lone Star Executive Airport
KCXO : now visible

Airfield :











YOU CAN JOIN US ON...

 
LOGIN :

Register | Disclaimer

   EN    FR    IT 

 









Legend :    VFR   Marginal VFR   IFR   Intensive IFR   Very Intensive IFR
Visi :
Ceiling :
>= 8 km
>= 3000ft
5 to 8 km
1000 to 3000 ft
1500m to 5 km
500 to 1000 ft
800 to 1500m
200 to 500 ft
< 800m
< 200 ft
Symbols :   Thunderstorms  Fog  Heavy snow  Heavy precipitations  Wind > 20 kt






- Airport Elevation : 245 ft


KCXO - Lone Star Executive

CURRENT METAR :
  • 232253Z 19004KT 3SM TSRA BR FEW021 BKN070 OVC100 23/22 A2989 RMK AO2 LTG DSNT NW SLP119 P0013 T02280222

EXPIRED METARs :
  • 232214Z 09003KT 5SM TSRA BR FEW030 BKN050 OVC070 23/23 A2989 RMK AO2 LTG DSNT SW P0007 T02330228
  • 232153Z 00000KT 2SM +TSRA BR SCT025 BKN049 OVC080 23/22 A2987 RMK AO2 LTG DSNT SW RAE02B45 TSB50 SLP112 P0007 T02330222
  • 232147Z 08005KT 4SM VCTS RA BR SCT023 SCT033 BKN047 24/22 A2987 RMK AO2 RAE02B45 P0004
  • 232128Z 02003KT 10SM FEW018 OVC028 24/21 A2988 RMK AO2 RAE02 P0000 T02440211
  • 232110Z 36006KT 10SM FEW017 BKN030 OVC060 24/21 A2989 RMK AO2 RAE02 P0000 T02440206
  • 232102Z 01006KT 10SM BKN028 BKN070 OVC100 26/21 A2988 RMK AO2 RAE02 P0000 T02560211
  • 232053Z 35006KT 10SM -RA FEW032 BKN065 OVC110 27/22 A2988 RMK AO2 RAB36 SLP115 P0000 60000 T02670222 57022
  • 232010Z 14006KT 10SM BKN110 23/19 A2989 RMK AO2 LTG DSNT N AND SW T02330194

TAF KCXO
Valid from the 23 at 22:00 until the 24 at 18:00 UTC


232203Z 2322/2418 14006KT P6SM VCTS SCT025 BKN050CB
TEMPO 2322/2324 VRB20G30KT 2SM TSRA BR BKN025CB
FM240100 15009KT P6SM FEW035 SCT120 BKN250
FM240300 15006KT P6SM FEW020 SCT250
FM240800 16003KT 4SM BR OVC015
FM241000 16003KT 1SM BR BKN006
FM241500 18008KT P6SM SCT010 BKN020
KZHU FIR / North America



MET'MAP, your aeronautical weather chart ! - Copyright ORBIFLY December 2007 - Disclaimer

ORBIFLY MET'MAP TEAM :

Programming & Development : Alexandra Zaïnal
Concept & original design : Baudouin d'Aumeries
Assistance for programming : Marc-Olivier Méhu
Technical & hardware support : Manuel Goepfert

Contact : metmap@orbifly.com




SOURCES & CREDITS :

   NOAA       Earth
Advisory